sensor_id;sensor_type;location;lat;lon;timestamp;pressure;altitude;pressure_sealevel;temperature;humidity
62791;BME280;48830;53.426;10.300;2023-12-20T00:00:53;100872.63;;;22.85;69.37
62791;BME280;48830;53.426;10.300;2023-12-20T00:03:18;100865.66;;;22.84;69.57
62791;BME280;48830;53.426;10.300;2023-12-20T00:05:44;100862.13;;;22.85;69.74
62791;BME280;48830;53.426;10.300;2023-12-20T00:08:09;100858.72;;;22.83;69.52
62791;BME280;48830;53.426;10.300;2023-12-20T00:10:35;100865.66;;;22.84;69.40
62791;BME280;48830;53.426;10.300;2023-12-20T00:13:00;100858.72;;;22.83;69.28
62791;BME280;48830;53.426;10.300;2023-12-20T00:15:26;100861.44;;;22.79;69.57
62791;BME280;48830;53.426;10.300;2023-12-20T00:17:51;100869.41;;;22.76;69.77
62791;BME280;48830;53.426;10.300;2023-12-20T00:22:42;100851.91;;;22.77;69.77
62791;BME280;48830;53.426;10.300;2023-12-20T00:25:07;100854.53;;;22.77;69.25
62791;BME280;48830;53.426;10.300;2023-12-20T00:27:33;100860.72;;;22.74;69.62
62791;BME280;48830;53.426;10.300;2023-12-20T00:29:58;100858.09;;;22.74;69.61
62791;BME280;48830;53.426;10.300;2023-12-20T00:32:24;100857.31;;;22.72;69.53
62791;BME280;48830;53.426;10.300;2023-12-20T00:34:49;100856.47;;;22.72;69.63
62791;BME280;48830;53.426;10.300;2023-12-20T00:37:15;100853.84;;;22.72;69.76
62791;BME280;48830;53.426;10.300;2023-12-20T00:39:41;100857.38;;;22.71;69.36
62791;BME280;48830;53.426;10.300;2023-12-20T00:42:07;100854.78;;;22.69;69.47
62791;BME280;48830;53.426;10.300;2023-12-20T00:44:32;100855.69;;;22.68;69.47
62791;BME280;48830;53.426;10.300;2023-12-20T00:46:58;100846.97;;;22.68;69.56
62791;BME280;48830;53.426;10.300;2023-12-20T00:49:23;100842.59;;;22.68;69.38
62791;BME280;48830;53.426;10.300;2023-12-20T00:51:49;100839.13;;;22.68;69.69
62791;BME280;48830;53.426;10.300;2023-12-20T00:54:16;100846.13;;;22.67;69.87
62791;BME280;48830;53.426;10.300;2023-12-20T00:56:41;100838.28;;;22.67;69.89
62791;BME280;48830;53.426;10.300;2023-12-20T00:59:07;100838.28;;;22.67;69.94
62791;BME280;48830;53.426;10.300;2023-12-20T01:01:32;100838.28;;;22.67;69.89
62791;BME280;48830;53.426;10.300;2023-12-20T01:03:58;100840.06;;;22.65;70.36
62791;BME280;48830;53.426;10.300;2023-12-20T01:06:24;100833.03;;;22.67;69.98
62791;BME280;48830;53.426;10.300;2023-12-20T01:08:49;100817.38;;;22.66;70.39
62791;BME280;48830;53.426;10.300;2023-12-20T01:11:15;100820.94;;;22.63;70.07
62791;BME280;48830;53.426;10.300;2023-12-20T01:13:40;100820.13;;;22.61;70.23
62791;BME280;48830;53.426;10.300;2023-12-20T01:16:06;100815.69;;;22.63;69.75
62791;BME280;48830;53.426;10.300;2023-12-20T01:18:31;100813.97;;;22.62;70.54
62791;BME280;48830;53.426;10.300;2023-12-20T01:21:02;100812.28;;;22.61;70.29
62791;BME280;48830;53.426;10.300;2023-12-20T01:23:28;100815.81;;;22.60;70.06
62791;BME280;48830;53.426;10.300;2023-12-20T01:25:53;100815.81;;;22.60;69.98
62791;BME280;48830;53.426;10.300;2023-12-20T01:28:19;100814.06;;;22.59;70.71
62791;BME280;48830;53.426;10.300;2023-12-20T01:30:44;100807.97;;;22.59;70.29
62791;BME280;48830;53.426;10.300;2023-12-20T01:33:10;100808.91;;;22.58;70.47
62791;BME280;48830;53.426;10.300;2023-12-20T01:35:35;100810.66;;;22.57;70.42
62791;BME280;48830;53.426;10.300;2023-12-20T01:38:01;100808.97;;;22.56;70.69
62791;BME280;48830;53.426;10.300;2023-12-20T01:40:26;100807.13;;;22.58;70.11
62791;BME280;48830;53.426;10.300;2023-12-20T01:43:02;100808.97;;;22.56;70.64
62791;BME280;48830;53.426;10.300;2023-12-20T01:45:28;100806.28;;;22.58;70.51
62791;BME280;48830;53.426;10.300;2023-12-20T01:47:56;100809.81;;;22.57;70.32
62791;BME280;48830;53.426;10.300;2023-12-20T01:50:23;100806.28;;;22.58;70.15
62791;BME280;48830;53.426;10.300;2023-12-20T01:52:49;100805.50;;;22.54;70.09
62791;BME280;48830;53.426;10.300;2023-12-20T01:55:18;100797.66;;;22.54;70.45
62791;BME280;48830;53.426;10.300;2023-12-20T01:57:45;100789.91;;;22.51;70.76
62791;BME280;48830;53.426;10.300;2023-12-20T02:00:13;100788.09;;;22.53;70.03
62791;BME280;48830;53.426;10.300;2023-12-20T02:02:40;100780.22;;;22.53;70.41
62791;BME280;48830;53.426;10.300;2023-12-20T02:05:06;100786.38;;;22.52;70.51
62791;BME280;48830;53.426;10.300;2023-12-20T02:07:32;100786.31;;;22.53;70.21
62791;BME280;48830;53.426;10.300;2023-12-20T02:09:59;100788.09;;;22.53;70.37
62791;BME280;48830;53.426;10.300;2023-12-20T02:12:25;100791.63;;;22.52;70.16
62791;BME280;48830;53.426;10.300;2023-12-20T02:14:50;100777.72;;;22.50;69.84
62791;BME280;48830;53.426;10.300;2023-12-20T02:17:16;100790.84;;;22.50;70.12
62791;BME280;48830;53.426;10.300;2023-12-20T02:19:41;100784.75;;;22.48;69.98
62791;BME280;48830;53.426;10.300;2023-12-20T02:22:08;100784.75;;;22.48;70.09
62791;BME280;48830;53.426;10.300;2023-12-20T02:24:33;100788.31;;;22.47;69.67
62791;BME280;48830;53.426;10.300;2023-12-20T02:26:59;100779.59;;;22.46;70.10
62791;BME280;48830;53.426;10.300;2023-12-20T02:29:24;100763.03;;;22.46;69.90
62791;BME280;48830;53.426;10.300;2023-12-20T02:31:50;100760.41;;;22.46;69.87
62791;BME280;48830;53.426;10.300;2023-12-20T02:34:15;100762.25;;;22.42;70.48
62791;BME280;48830;53.426;10.300;2023-12-20T02:36:40;100764.03;;;22.42;70.53
62791;BME280;48830;53.426;10.300;2023-12-20T02:39:06;100757.88;;;22.43;70.08
62791;BME280;48830;53.426;10.300;2023-12-20T02:41:31;100754.34;;;22.44;70.46
62791;BME280;48830;53.426;10.300;2023-12-20T02:43:57;100756.88;;;22.47;70.51
62791;BME280;48830;53.426;10.300;2023-12-20T02:46:23;100757.84;;;22.44;71.00
62791;BME280;48830;53.426;10.300;2023-12-20T02:48:48;100760.50;;;22.43;70.81
62791;BME280;48830;53.426;10.300;2023-12-20T02:51:13;100757.88;;;22.43;70.61
62791;BME280;48830;53.426;10.300;2023-12-20T02:53:39;100750.88;;;22.43;70.84
62791;BME280;48830;53.426;10.300;2023-12-20T02:56:05;100744.84;;;22.41;70.84
62791;BME280;48830;53.426;10.300;2023-12-20T02:58:30;100743.06;;;22.42;70.53
62791;BME280;48830;53.426;10.300;2023-12-20T03:00:56;100751.78;;;22.42;70.90
62791;BME280;48830;53.426;10.300;2023-12-20T03:03:21;100745.69;;;22.42;70.67
62791;BME280;48830;53.426;10.300;2023-12-20T03:05:46;100746.59;;;22.41;70.55
62791;BME280;48830;53.426;10.300;2023-12-20T03:08:12;100737.84;;;22.42;70.88
62791;BME280;48830;53.426;10.300;2023-12-20T03:10:37;100738.69;;;22.42;70.70
62791;BME280;48830;53.426;10.300;2023-12-20T03:13:03;100729.19;;;22.40;70.77
62791;BME280;48830;53.426;10.300;2023-12-20T03:15:28;100722.13;;;22.42;70.56
62791;BME280;48830;53.426;10.300;2023-12-20T03:17:54;100727.34;;;22.42;70.47
62791;BME280;48830;53.426;10.300;2023-12-20T03:20:19;100721.19;;;22.43;70.61
62791;BME280;48830;53.426;10.300;2023-12-20T03:22:45;100716.88;;;22.42;70.67
62791;BME280;48830;53.426;10.300;2023-12-20T03:25:11;100706.41;;;22.42;71.23
62791;BME280;48830;53.426;10.300;2023-12-20T03:27:37;100705.56;;;22.41;70.82
62791;BME280;48830;53.426;10.300;2023-12-20T03:30:06;100709.94;;;22.41;71.16
62791;BME280;48830;53.426;10.300;2023-12-20T03:32:31;100704.69;;;22.41;70.85
62791;BME280;48830;53.426;10.300;2023-12-20T03:34:57;100707.31;;;22.41;70.86
62791;BME280;48830;53.426;10.300;2023-12-20T03:37:23;100699.47;;;22.41;70.99
62791;BME280;48830;53.426;10.300;2023-12-20T03:39:48;100698.59;;;22.40;70.79
62791;BME280;48830;53.426;10.300;2023-12-20T03:42:14;100689.91;;;22.40;70.99
62791;BME280;48830;53.426;10.300;2023-12-20T03:44:39;100699.41;;;22.42;70.70
62791;BME280;48830;53.426;10.300;2023-12-20T03:47:07;100694.09;;;22.44;70.70
62791;BME280;48830;53.426;10.300;2023-12-20T03:49:33;100696.72;;;22.44;71.08
62791;BME280;48830;53.426;10.300;2023-12-20T03:51:58;100691.44;;;22.45;70.69
62791;BME280;48830;53.426;10.300;2023-12-20T03:54:24;100689.63;;;22.47;70.16
62791;BME280;48830;53.426;10.300;2023-12-20T03:56:50;100691.38;;;22.47;70.45
62791;BME280;48830;53.426;10.300;2023-12-20T03:59:16;100690.47;;;22.48;70.40
62791;BME280;48830;53.426;10.300;2023-12-20T04:01:44;100682.56;;;22.49;70.59
62791;BME280;48830;53.426;10.300;2023-12-20T04:04:10;100681.66;;;22.50;70.38
62791;BME280;48830;53.426;10.300;2023-12-20T04:06:37;100681.53;;;22.53;70.37
62791;BME280;48830;53.426;10.300;2023-12-20T04:09:02;100675.38;;;22.54;70.21
62791;BME280;48830;53.426;10.300;2023-12-20T04:11:28;100668.41;;;22.55;70.57
62791;BME280;48830;53.426;10.300;2023-12-20T04:13:53;100669.28;;;22.54;70.49
62791;BME280;48830;53.426;10.300;2023-12-20T04:16:19;100670.03;;;22.58;70.42
62791;BME280;48830;53.426;10.300;2023-12-20T04:18:44;100667.31;;;22.61;70.01
62791;BME280;48830;53.426;10.300;2023-12-20T04:21:10;100667.25;;;22.62;69.92
62791;BME280;48830;53.426;10.300;2023-12-20T04:23:35;100666.28;;;22.65;70.03
62791;BME280;48830;53.426;10.300;2023-12-20T04:26:01;100658.41;;;22.65;69.88
62791;BME280;48830;53.426;10.300;2023-12-20T04:28:26;100667.94;;;22.67;70.20
62791;BME280;48830;53.426;10.300;2023-12-20T04:30:55;100662.56;;;22.70;70.04
62791;BME280;48830;53.426;10.300;2023-12-20T04:33:21;100652.97;;;22.71;69.73
62791;BME280;48830;53.426;10.300;2023-12-20T04:35:47;100645.97;;;22.71;69.63
62791;BME280;48830;53.426;10.300;2023-12-20T04:38:12;100637.25;;;22.71;69.75
62791;BME280;48830;53.426;10.300;2023-12-20T04:40:38;100633.66;;;22.73;69.51
62791;BME280;48830;53.426;10.300;2023-12-20T04:43:04;100637.13;;;22.74;69.99
62791;BME280;48830;53.426;10.300;2023-12-20T04:45:29;100630.97;;;22.75;69.75
62791;BME280;48830;53.426;10.300;2023-12-20T04:47:55;100633.59;;;22.75;69.56
62791;BME280;48830;53.426;10.300;2023-12-20T04:50:20;100621.31;;;22.75;69.77
62791;BME280;48830;53.426;10.300;2023-12-20T04:52:47;100616.00;;;22.78;69.32
62791;BME280;48830;53.426;10.300;2023-12-20T04:55:12;100612.44;;;22.79;69.50
62791;BME280;48830;53.426;10.300;2023-12-20T04:57:37;100611.53;;;22.80;69.15
62791;BME280;48830;53.426;10.300;2023-12-20T05:00:03;100607.13;;;22.81;69.47
62791;BME280;48830;53.426;10.300;2023-12-20T05:02:30;100608.00;;;22.82;68.96
62791;BME280;48830;53.426;10.300;2023-12-20T05:04:55;100594.88;;;22.82;69.04
62791;BME280;48830;53.426;10.300;2023-12-20T05:07:20;100601.84;;;22.83;69.17
62791;BME280;48830;53.426;10.300;2023-12-20T05:09:46;100604.34;;;22.86;69.40
62791;BME280;48830;53.426;10.300;2023-12-20T05:12:11;100601.72;;;22.86;69.35
62791;BME280;48830;53.426;10.300;2023-12-20T05:14:37;100605.19;;;22.88;69.42
62791;BME280;48830;53.426;10.300;2023-12-20T05:17:02;100606.03;;;22.88;69.19
62791;BME280;48830;53.426;10.300;2023-12-20T05:19:28;100612.13;;;22.89;69.48
62791;BME280;48830;53.426;10.300;2023-12-20T05:21:53;100606.03;;;22.88;69.47
62791;BME280;48830;53.426;10.300;2023-12-20T05:24:19;100596.41;;;22.89;69.30
62791;BME280;48830;53.426;10.300;2023-12-20T05:26:44;100596.28;;;22.92;68.96
62791;BME280;48830;53.426;10.300;2023-12-20T05:29:10;100599.81;;;22.91;69.04
62791;BME280;48830;53.426;10.300;2023-12-20T05:31:35;100604.13;;;22.92;69.19
62791;BME280;48830;53.426;10.300;2023-12-20T05:34:01;100603.34;;;22.90;69.35
62791;BME280;48830;53.426;10.300;2023-12-20T05:36:26;100598.84;;;22.93;68.81
62791;BME280;48830;53.426;10.300;2023-12-20T05:38:52;100598.84;;;22.93;69.46
62791;BME280;48830;53.426;10.300;2023-12-20T05:41:18;100610.19;;;22.94;69.15
62791;BME280;48830;53.426;10.300;2023-12-20T05:43:43;100605.81;;;22.94;69.53
62791;BME280;48830;53.426;10.300;2023-12-20T05:46:12;100601.41;;;22.95;68.90
62791;BME280;48830;53.426;10.300;2023-12-20T05:48:38;100597.88;;;22.96;69.23
62791;BME280;48830;53.426;10.300;2023-12-20T05:51:03;100592.63;;;22.96;69.00
62791;BME280;48830;53.426;10.300;2023-12-20T05:53:29;100596.06;;;22.98;69.38
62791;BME280;48830;53.426;10.300;2023-12-20T05:55:54;100596.06;;;22.98;68.75
62791;BME280;48830;53.426;10.300;2023-12-20T05:58:20;100585.63;;;22.96;68.71
62791;BME280;48830;53.426;10.300;2023-12-20T06:00:45;100590.81;;;22.98;69.36
62791;BME280;48830;53.426;10.300;2023-12-20T06:03:11;100588.13;;;22.99;68.82
62791;BME280;48830;53.426;10.300;2023-12-20T06:05:36;100582.88;;;22.99;68.93
62791;BME280;48830;53.426;10.300;2023-12-20T06:08:01;100575.94;;;22.98;68.66
62791;BME280;48830;53.426;10.300;2023-12-20T06:10:28;100573.25;;;23.00;68.98
62791;BME280;48830;53.426;10.300;2023-12-20T06:12:54;100582.03;;;22.99;68.55
62791;BME280;48830;53.426;10.300;2023-12-20T06:15:20;100571.53;;;22.99;68.99
62791;BME280;48830;53.426;10.300;2023-12-20T06:17:46;100576.78;;;22.99;69.18
62791;BME280;48830;53.426;10.300;2023-12-20T06:20:12;100563.63;;;23.00;68.75
62791;BME280;48830;53.426;10.300;2023-12-20T06:22:38;100557.53;;;23.00;68.67
62791;BME280;48830;53.426;10.300;2023-12-20T06:25:04;100571.47;;;23.00;68.56
62791;BME280;48830;53.426;10.300;2023-12-20T06:27:30;100562.75;;;23.00;68.77
62791;BME280;48830;53.426;10.300;2023-12-20T06:29:57;100562.75;;;23.00;68.78
62791;BME280;48830;53.426;10.300;2023-12-20T06:32:23;100551.28;;;23.02;68.97
62791;BME280;48830;53.426;10.300;2023-12-20T06:34:49;100555.75;;;23.00;68.48
62791;BME280;48830;53.426;10.300;2023-12-20T06:37:15;100559.22;;;23.01;68.68
62791;BME280;48830;53.426;10.300;2023-12-20T06:39:40;100550.44;;;23.02;68.71
62791;BME280;48830;53.426;10.300;2023-12-20T06:42:06;100548.66;;;23.02;69.00
62791;BME280;48830;53.426;10.300;2023-12-20T06:44:31;100546.88;;;23.03;68.91
62791;BME280;48830;53.426;10.300;2023-12-20T06:46:57;100550.41;;;23.03;69.09
62791;BME280;48830;53.426;10.300;2023-12-20T06:49:23;100551.25;;;23.04;68.39
62791;BME280;48830;53.426;10.300;2023-12-20T06:51:48;100541.59;;;23.04;68.31
62791;BME280;48830;53.426;10.300;2023-12-20T06:54:14;100547.69;;;23.05;68.55
62791;BME280;48830;53.426;10.300;2023-12-20T06:56:39;100535.53;;;23.04;68.60
62791;BME280;48830;53.426;10.300;2023-12-20T06:59:06;100534.59;;;23.05;68.89
62791;BME280;48830;53.426;10.300;2023-12-20T07:01:31;100525.88;;;23.04;68.49
62791;BME280;48830;53.426;10.300;2023-12-20T07:03:57;100524.09;;;23.05;68.77
62791;BME280;48830;53.426;10.300;2023-12-20T07:06:22;100521.50;;;23.05;68.83
62791;BME280;48830;53.426;10.300;2023-12-20T07:08:48;100518.94;;;23.03;68.68
62791;BME280;48830;53.426;10.300;2023-12-20T07:11:13;100518.06;;;23.03;68.79
62791;BME280;48830;53.426;10.300;2023-12-20T07:13:39;100514.66;;;23.01;68.85
62791;BME280;48830;53.426;10.300;2023-12-20T07:16:04;100517.19;;;23.02;68.50
62791;BME280;48830;53.426;10.300;2023-12-20T07:18:30;100515.44;;;23.03;68.65
62791;BME280;48830;53.426;10.300;2023-12-20T07:20:55;100508.50;;;23.02;68.53
62791;BME280;48830;53.426;10.300;2023-12-20T07:23:21;100517.16;;;23.04;68.72
62791;BME280;48830;53.426;10.300;2023-12-20T07:25:46;100518.06;;;23.03;68.59
62791;BME280;48830;53.426;10.300;2023-12-20T07:28:12;100516.31;;;23.03;68.50
62791;BME280;48830;53.426;10.300;2023-12-20T07:30:38;100526.72;;;23.05;68.54
62791;BME280;48830;53.426;10.300;2023-12-20T07:33:04;100511.06;;;23.03;68.62
62791;BME280;48830;53.426;10.300;2023-12-20T07:35:30;100512.69;;;23.06;68.59
62791;BME280;48830;53.426;10.300;2023-12-20T07:37:55;100498.66;;;23.07;68.41
62791;BME280;48830;53.426;10.300;2023-12-20T07:40:21;100498.66;;;23.07;68.47
62791;BME280;48830;53.426;10.300;2023-12-20T07:42:46;100501.28;;;23.07;68.78
62791;BME280;48830;53.426;10.300;2023-12-20T07:45:12;100511.78;;;23.07;68.46
62791;BME280;48830;53.426;10.300;2023-12-20T07:47:37;100511.78;;;23.07;68.51
62791;BME280;48830;53.426;10.300;2023-12-20T07:50:03;100516.16;;;23.07;68.72
62791;BME280;48830;53.426;10.300;2023-12-20T07:52:29;100505.63;;;23.08;68.56
62791;BME280;48830;53.426;10.300;2023-12-20T07:54:55;100511.78;;;23.07;68.37
62791;BME280;48830;53.426;10.300;2023-12-20T07:57:21;100501.28;;;23.07;68.64
62791;BME280;48830;53.426;10.300;2023-12-20T07:59:46;100515.25;;;23.08;68.79
62791;BME280;48830;53.426;10.300;2023-12-20T08:02:12;100503.91;;;23.07;68.65
62791;BME280;48830;53.426;10.300;2023-12-20T08:04:37;100496.91;;;23.08;68.51
62791;BME280;48830;53.426;10.300;2023-12-20T08:07:03;100482.00;;;23.08;68.52
62791;BME280;48830;53.426;10.300;2023-12-20T08:09:29;100496.91;;;23.08;68.71
62791;BME280;48830;53.426;10.300;2023-12-20T08:11:55;100495.13;;;23.08;69.04
62791;BME280;48830;53.426;10.300;2023-12-20T08:14:21;100495.09;;;23.10;69.44
62791;BME280;48830;53.426;10.300;2023-12-20T08:16:46;100490.03;;;23.05;69.80
62791;BME280;48830;53.426;10.300;2023-12-20T08:19:12;100482.81;;;23.10;69.76
62791;BME280;48830;53.426;10.300;2023-12-20T08:21:38;100483.59;;;23.12;69.78
62791;BME280;48830;53.426;10.300;2023-12-20T08:24:04;100469.56;;;23.13;70.13
62791;BME280;48830;53.426;10.300;2023-12-20T08:26:30;100474.69;;;23.16;70.16
62791;BME280;48830;53.426;10.300;2023-12-20T08:28:55;100471.16;;;23.17;70.84
62791;BME280;48830;53.426;10.300;2023-12-20T08:31:21;100474.63;;;23.18;71.10
62791;BME280;48830;53.426;10.300;2023-12-20T08:33:47;100465.91;;;23.17;71.12
62791;BME280;48830;53.426;10.300;2023-12-20T08:36:13;100460.66;;;23.17;70.90
62791;BME280;48830;53.426;10.300;2023-12-20T08:38:39;100465.91;;;23.17;70.83
62791;BME280;48830;53.426;10.300;2023-12-20T08:41:04;100446.63;;;23.18;70.98
62791;BME280;48830;53.426;10.300;2023-12-20T08:43:31;100448.28;;;23.21;70.86
62791;BME280;48830;53.426;10.300;2023-12-20T08:45:56;100441.34;;;23.20;70.77
62791;BME280;48830;53.426;10.300;2023-12-20T08:48:22;100437.88;;;23.19;71.18
62791;BME280;48830;53.426;10.300;2023-12-20T08:50:47;100443.13;;;23.19;71.07
62791;BME280;48830;53.426;10.300;2023-12-20T08:53:15;100451.75;;;23.21;71.27
62791;BME280;48830;53.426;10.300;2023-12-20T08:55:41;100441.34;;;23.20;70.66
62791;BME280;48830;53.426;10.300;2023-12-20T08:58:07;100430.78;;;23.21;71.14
62791;BME280;48830;53.426;10.300;2023-12-20T09:00:34;100424.75;;;23.19;70.49
62791;BME280;48830;53.426;10.300;2023-12-20T09:02:59;100426.47;;;23.20;70.12
62791;BME280;48830;53.426;10.300;2023-12-20T09:05:25;100425.53;;;23.21;70.62
62791;BME280;48830;53.426;10.300;2023-12-20T09:07:50;100425.53;;;23.21;70.65
62791;BME280;48830;53.426;10.300;2023-12-20T09:10:16;100424.59;;;23.22;70.32
62791;BME280;48830;53.426;10.300;2023-12-20T09:12:47;100418.44;;;23.23;71.13
62791;BME280;48830;53.426;10.300;2023-12-20T09:15:13;100430.63;;;23.24;71.64
62791;BME280;48830;53.426;10.300;2023-12-20T09:17:38;100434.06;;;23.26;70.99
62791;BME280;48830;53.426;10.300;2023-12-20T09:20:04;100418.31;;;23.26;71.68
62791;BME280;48830;53.426;10.300;2023-12-20T09:22:32;100411.31;;;23.27;71.63
62791;BME280;48830;53.426;10.300;2023-12-20T09:24:57;100413.06;;;23.26;71.34
62791;BME280;48830;53.426;10.300;2023-12-20T09:27:23;100421.72;;;23.28;71.33
62791;BME280;48830;53.426;10.300;2023-12-20T09:29:48;100426.13;;;23.28;71.52
62791;BME280;48830;53.426;10.300;2023-12-20T09:32:15;100426.13;;;23.28;71.87
62791;BME280;48830;53.426;10.300;2023-12-20T09:34:40;100443.69;;;23.26;71.81
62791;BME280;48830;53.426;10.300;2023-12-20T09:37:07;100436.75;;;23.25;71.40
62791;BME280;48830;53.426;10.300;2023-12-20T09:39:33;100436.69;;;23.26;71.50
62791;BME280;48830;53.426;10.300;2023-12-20T09:42:02;100441.94;;;23.26;71.63
62791;BME280;48830;53.426;10.300;2023-12-20T09:44:28;100441.00;;;23.27;71.52
62791;BME280;48830;53.426;10.300;2023-12-20T09:46:55;100447.09;;;23.28;71.61
62791;BME280;48830;53.426;10.300;2023-12-20T09:49:21;100438.25;;;23.30;71.18
62791;BME280;48830;53.426;10.300;2023-12-20T09:51:47;100426.84;;;23.31;71.55
62791;BME280;48830;53.426;10.300;2023-12-20T09:54:20;100426.84;;;23.31;71.26
62791;BME280;48830;53.426;10.300;2023-12-20T09:56:46;100419.91;;;23.30;71.53
62791;BME280;48830;53.426;10.300;2023-12-20T09:59:13;100427.81;;;23.29;70.79
62791;BME280;48830;53.426;10.300;2023-12-20T10:01:42;100426.88;;;23.30;70.82
62791;BME280;48830;53.426;10.300;2023-12-20T10:04:09;100421.66;;;23.30;71.15
62791;BME280;48830;53.426;10.300;2023-12-20T10:06:42;100435.88;;;23.24;69.28
62791;BME280;48830;53.426;10.300;2023-12-20T10:09:08;100430.50;;;23.27;70.43
62791;BME280;48830;53.426;10.300;2023-12-20T10:11:36;100442.63;;;23.30;71.08
62791;BME280;48830;53.426;10.300;2023-12-20T10:14:03;100429.41;;;23.33;70.76
62791;BME280;48830;53.426;10.300;2023-12-20T10:16:29;100423.22;;;23.34;70.59
62791;BME280;48830;53.426;10.300;2023-12-20T10:18:56;100425.81;;;23.36;70.55
62791;BME280;48830;53.426;10.300;2023-12-20T10:21:25;100417.94;;;23.36;70.87
62791;BME280;48830;53.426;10.300;2023-12-20T10:23:57;100397.81;;;23.36;70.82
62791;BME280;48830;53.426;10.300;2023-12-20T10:26:24;100409.13;;;23.37;70.92
62791;BME280;48830;53.426;10.300;2023-12-20T10:28:54;100394.25;;;23.37;70.68
62791;BME280;48830;53.426;10.300;2023-12-20T10:31:31;100418.72;;;23.38;70.88
62791;BME280;48830;53.426;10.300;2023-12-20T10:33:58;100432.59;;;23.40;70.86
62791;BME280;48830;53.426;10.300;2023-12-20T10:36:25;100450.09;;;23.39;70.96
62791;BME280;48830;53.426;10.300;2023-12-20T10:38:52;100450.03;;;23.41;70.64
62791;BME280;48830;53.426;10.300;2023-12-20T10:41:28;100429.97;;;23.40;70.60
62791;BME280;48830;53.426;10.300;2023-12-20T10:44:04;100442.16;;;23.41;70.75
62791;BME280;48830;53.426;10.300;2023-12-20T10:46:33;100434.25;;;23.42;70.51
62791;BME280;48830;53.426;10.300;2023-12-20T10:49:02;100430.81;;;23.40;70.63
62791;BME280;48830;53.426;10.300;2023-12-20T10:51:28;100408.94;;;23.41;70.42
62791;BME280;48830;53.426;10.300;2023-12-20T10:53:55;100407.16;;;23.42;70.43
62791;BME280;48830;53.426;10.300;2023-12-20T10:56:21;100417.78;;;23.39;70.50
62791;BME280;48830;53.426;10.300;2023-12-20T10:58:49;100411.69;;;23.38;70.87
62791;BME280;48830;53.426;10.300;2023-12-20T11:01:18;100409.78;;;23.42;70.92
62791;BME280;48830;53.426;10.300;2023-12-20T11:03:52;100415.81;;;23.44;70.96
62791;BME280;48830;53.426;10.300;2023-12-20T11:06:34;100413.97;;;23.46;70.67
62791;BME280;48830;53.426;10.300;2023-12-20T11:09:38;100409.59;;;23.46;70.67
62791;BME280;48830;53.426;10.300;2023-12-20T11:12:10;100405.31;;;23.44;71.03
62791;BME280;48830;53.426;10.300;2023-12-20T11:17:08;100403.47;;;23.46;70.28
62791;BME280;48830;53.426;10.300;2023-12-20T11:22:31;100407.00;;;23.45;70.80
62791;BME280;48830;53.426;10.300;2023-12-20T11:25:10;100409.41;;;23.10;56.88
62791;BME280;48830;53.426;10.300;2023-12-20T11:27:40;100408.31;;;22.51;54.92
62791;BME280;48830;53.426;10.300;2023-12-20T11:30:06;100404.94;;;22.48;60.16
62791;BME280;48830;53.426;10.300;2023-12-20T11:32:34;100394.88;;;22.59;61.13
62791;BME280;48830;53.426;10.300;2023-12-20T11:37:36;100387.66;;;22.86;65.34
62791;BME280;48830;53.426;10.300;2023-12-20T11:40:06;100396.09;;;22.94;66.11
62791;BME280;48830;53.426;10.300;2023-12-20T11:42:38;100399.38;;;22.99;66.96
62791;BME280;48830;53.426;10.300;2023-12-20T11:45:05;100402.78;;;23.01;67.22
62791;BME280;48830;53.426;10.300;2023-12-20T11:47:31;100382.59;;;23.03;67.35
62791;BME280;48830;53.426;10.300;2023-12-20T11:49:57;100382.47;;;23.07;67.99
62791;BME280;48830;53.426;10.300;2023-12-20T11:52:22;100401.63;;;23.09;67.94
62791;BME280;48830;53.426;10.300;2023-12-20T11:54:48;100401.53;;;23.10;68.18
62791;BME280;48830;53.426;10.300;2023-12-20T11:57:13;100405.09;;;23.09;67.89
62791;BME280;48830;53.426;10.300;2023-12-20T11:59:39;100405.88;;;23.11;68.28
62791;BME280;48830;53.426;10.300;2023-12-20T12:02:05;100404.94;;;23.12;68.56
62791;BME280;48830;53.426;10.300;2023-12-20T12:04:31;100399.69;;;23.12;68.11
62791;BME280;48830;53.426;10.300;2023-12-20T12:06:56;100411.09;;;23.11;67.60
62791;BME280;48830;53.426;10.300;2023-12-20T12:09:21;100402.47;;;23.09;67.64
62791;BME280;48830;53.426;10.300;2023-12-20T12:11:47;100402.47;;;23.09;68.13
62791;BME280;48830;53.426;10.300;2023-12-20T12:14:13;100398.13;;;23.08;68.27
62791;BME280;48830;53.426;10.300;2023-12-20T12:16:39;100401.63;;;23.09;68.14
62791;BME280;48830;53.426;10.300;2023-12-20T12:19:06;100398.13;;;23.08;68.14
62791;BME280;48830;53.426;10.300;2023-12-20T12:21:32;100405.09;;;23.09;68.14
62791;BME280;48830;53.426;10.300;2023-12-20T12:24:08;100397.22;;;23.09;67.54
62791;BME280;48830;53.426;10.300;2023-12-20T12:26:34;100393.78;;;23.07;68.06
62791;BME280;48830;53.426;10.300;2023-12-20T12:28:59;100389.34;;;23.09;68.24
62791;BME280;48830;53.426;10.300;2023-12-20T12:31:25;100389.34;;;23.09;67.80
62791;BME280;48830;53.426;10.300;2023-12-20T12:33:52;100401.41;;;23.13;67.76
62791;BME280;48830;53.426;10.300;2023-12-20T12:36:17;100391.38;;;23.23;67.35
62791;BME280;48830;53.426;10.300;2023-12-20T12:38:43;100383.38;;;23.26;67.13
62791;BME280;48830;53.426;10.300;2023-12-20T12:41:09;100386.69;;;23.29;66.93
62791;BME280;48830;53.426;10.300;2023-12-20T12:43:36;100391.56;;;23.39;67.29
62791;BME280;48830;53.426;10.300;2023-12-20T12:46:01;100388.66;;;23.45;66.87